Time;durP1;ratioP1;P1;durP2;ratioP2;P2;SDS_P1;SDS_P2;PMS_P1;PMS_P2;Temp;Humidity;BMP_temperature;BMP_pressure;BME280_temperature;BME280_humidity;BME280_pressure;Samples;Min_cycle;Max_cycle;Signal;HPM_P1;HPM_P2
2022/03/28 00:01:22;;;;;;;57.17;18.32;;;;;;;-1.12;48.11;100358.70;1792450;80;21026;-71
2022/03/28 00:03:49;;;;;;;54.93;18.55;;;;;;;-1.17;48.11;100357.70;1770366;80;20986;-69
2022/03/28 00:06:16;;;;;;;44.08;16.85;;;;;;;-1.19;48.38;100364.69;1788549;80;20863;-71
2022/03/28 00:08:43;;;;;;;42.60;15.35;;;;;;;-1.23;48.51;100362.94;1792505;80;21696;-70
2022/03/28 00:11:14;;;;;;;36.68;15.15;;;;;;;-1.25;48.56;100356.95;1791719;79;20993;-68
2022/03/28 00:13:42;;;;;;;41.13;13.65;;;;;;;-1.27;48.53;100354.98;1792356;80;20979;-70
2022/03/28 00:16:09;;;;;;;40.00;13.80;;;;;;;-1.29;48.64;100350.83;1792476;80;21507;-70
2022/03/28 00:18:37;;;;;;;48.73;18.32;;;;;;;-1.30;48.59;100354.08;1792379;80;20954;-70
2022/03/28 00:21:04;;;;;;;44.20;17.73;;;;;;;-1.25;48.88;100355.59;1792565;80;21019;-71
2022/03/28 00:23:39;;;;;;;48.28;18.82;;;;;;;-1.20;49.02;100353.58;1792945;80;20899;-70
2022/03/28 00:26:07;;;;;;;;;;;;;;;-1.17;49.07;100356.34;1794787;80;20883;-69
2022/03/28 00:28:34;;;;;;;47.35;16.37;;;;;;;-1.16;49.02;100353.97;1792414;80;20191;-71
2022/03/28 00:31:11;;;;;;;46.23;16.40;;;;;;;-1.17;49.06;100353.64;1788775;80;20955;-69
2022/03/28 00:33:40;;;;;;;50.85;16.93;;;;;;;-1.21;49.10;100351.09;1792217;80;21140;-69
2022/03/28 00:36:14;;;;;;;44.73;16.45;;;;;;;-1.26;49.24;100357.98;1831998;78;21396;-68
2022/03/28 00:38:45;;;;;;;41.08;15.78;;;;;;;-1.26;49.37;100356.63;1831517;78;20868;-71
2022/03/28 00:41:15;;;;;;;45.33;17.02;;;;;;;-1.30;49.20;100355.43;1832181;78;20910;-69
2022/03/28 00:43:56;;;;;;;;;;;;;;;-1.34;49.34;100350.14;1835392;78;21369;-71
2022/03/28 00:46:22;;;;;;;40.92;13.28;;;;;;;-1.35;49.58;100350.66;1831464;78;21118;-70
2022/03/28 00:48:56;;;;;;;48.65;14.93;;;;;;;-1.36;49.52;100348.17;1832210;78;20946;-69
2022/03/28 00:51:26;;;;;;;34.53;13.83;;;;;;;-1.40;49.50;100338.32;1832283;77;21166;-71
2022/03/28 00:54:02;;;;;;;54.45;15.10;;;;;;;-1.41;49.54;100346.66;1805506;78;20950;-71
2022/03/28 00:56:40;;;;;;;41.08;15.53;;;;;;;-1.42;49.63;100346.36;1777622;79;20910;-69
2022/03/28 00:59:11;;;;;;;37.83;14.85;;;;;;;-1.44;49.60;100339.83;1799358;79;21242;-68
2022/03/28 01:01:45;;;;;;;42.75;14.95;;;;;;;-1.41;49.70;100342.59;1772736;79;21094;-71
2022/03/28 01:04:12;;;;;;;37.30;14.05;;;;;;;-1.36;49.75;100340.90;1799714;79;20878;-71
2022/03/28 01:06:39;;;;;;;37.38;13.72;;;;;;;-1.31;49.65;100337.53;1799563;79;20931;-70
2022/03/28 01:09:09;;;;;;;41.10;13.50;;;;;;;-1.32;49.50;100332.34;1799615;79;20902;-71
2022/03/28 01:11:44;;;;;;;39.85;14.70;;;;;;;-1.32;49.60;100332.34;1799456;79;21218;-71
2022/03/28 01:14:12;;;;;;;42.17;15.45;;;;;;;-1.31;49.54;100334.83;1799390;79;21471;-71
2022/03/28 01:19:33;;;;;;;36.75;13.53;;;;;;;-1.25;49.59;100331.77;1799555;78;21010;-71
2022/03/28 01:22:00;;;;;;;32.40;12.33;;;;;;;-1.24;49.65;100330.71;1799334;79;20927;-71
2022/03/28 01:24:30;;;;;;;32.35;12.85;;;;;;;-1.23;49.62;100333.19;1799382;79;20883;-70
2022/03/28 01:27:01;;;;;;;28.05;12.25;;;;;;;-1.19;49.35;100334.94;1799808;79;20919;-71
2022/03/28 01:29:30;;;;;;;;;;;;;;;-1.19;49.30;100338.98;1798623;79;20887;-71
2022/03/28 01:31:56;;;;;;;33.60;11.80;;;;;;;-1.18;49.21;100333.90;1799670;79;20071;-71
2022/03/28 01:34:32;;;;;;;35.33;12.07;;;;;;;-1.21;49.31;100334.32;1795572;79;20899;-70
2022/03/28 01:37:07;;;;;;;40.50;12.30;;;;;;;-1.26;49.40;100326.88;1794567;79;21855;-71
2022/03/28 01:39:33;;;;;;;36.63;9.90;;;;;;;-1.30;49.44;100325.68;1799606;79;21018;-71
2022/03/28 01:42:02;;;;;;;30.32;11.08;;;;;;;-1.31;49.49;100322.66;1799505;78;21434;-71
2022/03/28 01:44:31;;;;;;;26.52;9.55;;;;;;;-1.33;49.53;100320.69;1768790;79;20952;-71
2022/03/28 01:46:57;;;;;;;40.33;11.25;;;;;;;-1.33;49.63;100317.98;1799844;79;20939;-70
2022/03/28 01:49:24;;;;;;;34.53;9.88;;;;;;;-1.30;49.75;100323.49;1799615;79;20986;-70
2022/03/28 01:51:54;;;;;;;34.08;11.60;;;;;;;-1.28;49.68;100320.86;1799378;79;21026;-70
2022/03/28 01:54:28;;;;;;;41.08;12.30;;;;;;;-1.24;49.58;100319.38;1751292;81;20918;-71
2022/03/28 01:57:10;;;;;;;45.17;13.77;;;;;;;-1.24;49.56;100316.67;1710153;82;20953;-70
2022/03/28 01:59:38;;;;;;;45.75;13.48;;;;;;;-1.27;49.46;100314.41;1742749;82;20953;-72
2022/03/28 02:02:05;;;;;;;38.15;12.30;;;;;;;-1.29;49.65;100305.69;1743000;82;21470;-69
2022/03/28 02:04:32;;;;;;;36.60;11.88;;;;;;;-1.29;49.75;100300.28;1743284;82;21493;-71
2022/03/28 02:07:01;;;;;;;32.05;13.05;;;;;;;-1.28;49.68;100302.47;1743167;81;21083;-69
2022/03/28 02:09:28;;;;;;;34.03;11.38;;;;;;;-1.30;49.77;100302.69;1743105;79;20957;-69
2022/03/28 02:11:56;;;;;;;43.48;12.78;;;;;;;-1.31;49.75;100306.42;1742964;81;20834;-68
2022/03/28 02:14:27;;;;;;;35.35;12.53;;;;;;;-1.32;49.93;100302.08;1721523;82;21249;-69
2022/03/28 02:16:57;;;;;;;39.40;13.38;;;;;;;-1.32;49.94;100302.08;1738841;82;20933;-70
2022/03/28 02:19:25;;;;;;;42.13;12.40;;;;;;;-1.31;49.88;100301.56;1742900;81;21011;-69
2022/03/28 02:21:54;;;;;;;26.87;10.58;;;;;;;-1.30;49.79;100293.74;1742906;82;20980;-70
2022/03/28 02:24:24;;;;;;;31.42;10.50;;;;;;;-1.34;49.78;100293.35;1731936;81;20984;-70
2022/03/28 02:26:52;;;;;;;33.75;9.58;;;;;;;-1.37;49.80;100295.98;1742995;82;21268;-69
2022/03/28 02:29:23;;;;;;;29.87;11.10;;;;;;;-1.38;49.96;100292.16;1739525;82;20941;-70
2022/03/28 02:31:50;;;;;;;37.67;11.28;;;;;;;-1.38;49.83;100298.92;1743018;82;20921;-68
2022/03/28 02:34:21;;;;;;;27.85;8.48;;;;;;;-1.39;49.81;100296.73;1736990;82;21045;-70
2022/03/28 02:36:50;;;;;;;19.32;6.30;;;;;;;-1.39;49.81;100295.89;1761231;81;21510;-69
2022/03/28 02:39:20;;;;;;;24.23;6.20;;;;;;;-1.36;49.83;100298.15;1756986;81;21059;-70
2022/03/28 02:41:50;;;;;;;23.42;7.12;;;;;;;-1.33;49.75;100290.94;1761317;81;21448;-68
2022/03/28 02:44:27;;;;;;;17.62;6.75;;;;;;;-1.27;50.02;100281.95;1757324;81;21407;-69
2022/03/28 02:46:57;;;;;;;28.32;8.13;;;;;;;-1.19;50.00;100274.06;1760990;81;20919;-71
2022/03/28 02:49:25;;;;;;;32.00;10.18;;;;;;;-1.11;49.95;100277.84;1760060;81;21022;-70
2022/03/28 02:51:58;;;;;;;44.15;11.35;;;;;;;-1.05;49.91;100277.48;1760824;80;21273;-70
2022/03/28 02:54:24;;;;;;;42.75;11.63;;;;;;;-1.02;49.70;100279.73;1760815;81;21061;-69
2022/03/28 02:56:54;;;;;;;38.98;10.85;;;;;;;-0.99;49.72;100277.92;1761623;81;20981;-70
2022/03/28 02:59:27;;;;;;;47.38;12.93;;;;;;;-0.97;49.52;100281.76;1757914;81;20986;-69
2022/03/28 03:01:55;;;;;;;35.17;11.35;;;;;;;-0.95;49.51;100281.53;1761540;81;20954;-69
2022/03/28 03:04:26;;;;;;;33.38;8.73;;;;;;;-0.96;49.45;100279.38;1758886;80;21025;-69
2022/03/28 03:06:53;;;;;;;37.55;9.80;;;;;;;-0.96;49.55;100279.89;1760865;81;20967;-68
2022/03/28 03:09:21;;;;;;;40.05;10.48;;;;;;;-0.97;49.60;100287.72;1738865;82;21541;-69
2022/03/28 03:11:51;;;;;;;31.07;9.18;;;;;;;-0.97;49.48;100275.54;1799803;78;20875;-70
2022/03/28 03:14:23;;;;;;;31.82;8.43;;;;;;;-0.97;49.49;100275.54;1798848;79;20902;-69
2022/03/28 03:16:53;;;;;;;29.40;6.37;;;;;;;-0.93;49.35;100266.73;1799169;79;20922;-70
2022/03/28 03:19:22;;;;;;;25.25;6.58;;;;;;;-0.90;49.23;100270.86;1799124;78;21368;-69
2022/03/28 03:21:56;;;;;;;18.52;6.08;;;;;;;-0.88;49.22;100272.82;1799127;79;21013;-69
2022/03/28 03:24:26;;;;;;;23.98;6.05;;;;;;;-0.84;49.12;100269.98;1798895;79;21593;-68
2022/03/28 03:26:52;;;;;;;17.37;5.85;;;;;;;-0.81;49.00;100265.98;1799449;79;20991;-69
2022/03/28 03:29:19;;;;;;;30.10;8.90;;;;;;;-0.79;48.93;100258.47;1799261;79;21136;-71
2022/03/28 03:31:50;;;;;;;32.23;10.53;;;;;;;-0.80;48.89;100251.41;1799379;79;21521;-70
2022/03/28 03:34:18;;;;;;;33.78;9.98;;;;;;;-0.79;48.87;100257.95;1808269;79;20935;-70
2022/03/28 03:36:46;;;;;;;20.12;6.03;;;;;;;-0.80;48.73;100254.92;1810465;79;21021;-67
2022/03/28 03:39:18;;;;;;;22.85;5.25;;;;;;;-0.84;48.65;100249.68;1805562;79;20898;-70
2022/03/28 03:41:47;;;;;;;12.30;4.60;;;;;;;-0.85;48.58;100253.42;1810590;79;21084;-69
2022/03/28 03:44:20;;;;;;;13.65;4.67;;;;;;;-0.84;48.70;100246.98;1779055;79;20969;-70
2022/03/28 03:46:49;;;;;;;20.37;4.85;;;;;;;-0.82;48.71;100252.96;1810558;79;21419;-69
2022/03/28 03:49:18;;;;;;;13.65;4.37;;;;;;;-0.83;48.60;100251.32;1805840;79;21356;-70
2022/03/28 03:51:45;;;;;;;13.83;4.83;;;;;;;-0.83;48.63;100244.56;1810230;79;21051;-68
2022/03/28 03:54:13;;;;;;;15.35;5.80;;;;;;;-0.84;48.61;100244.27;1810224;79;21876;-70
2022/03/28 03:56:43;;;;;;;31.93;6.65;;;;;;;-0.84;48.58;100252.39;1810403;79;21520;-71
2022/03/28 03:59:10;;;;;;;28.75;8.88;;;;;;;-0.86;48.73;100239.60;1810679;79;20906;-71
2022/03/28 04:01:46;;;;;;;29.63;7.47;;;;;;;-0.86;48.85;100232.83;1774615;79;20918;-70
2022/03/28 04:04:13;;;;;;;24.50;7.22;;;;;;;-0.86;48.96;100231.48;1779125;79;21052;-71
2022/03/28 04:06:44;;;;;;;13.20;4.15;;;;;;;-0.83;49.02;100239.14;1804984;78;21875;-70
2022/03/28 04:09:15;;;;;;;15.08;5.67;;;;;;;-0.81;48.87;100238.91;1810135;79;20949;-70
2022/03/28 04:11:47;;;;;;;15.63;5.80;;;;;;;-0.81;48.92;100232.98;1810544;79;20965;-68
2022/03/28 04:14:19;;;;;;;14.80;5.67;;;;;;;-0.77;48.95;100240.94;1806644;79;20890;-71
2022/03/28 04:16:47;;;;;;;15.63;5.17;;;;;;;-0.76;48.92;100234.48;1810993;79;20851;-70
2022/03/28 04:19:14;;;;;;;19.85;6.20;;;;;;;-0.72;48.98;100240.28;1810269;77;21807;-70
2022/03/28 04:21:48;;;;;;;17.95;4.72;;;;;;;-0.68;49.02;100240.66;1810374;79;20958;-70
2022/03/28 04:24:14;;;;;;;11.22;4.53;;;;;;;-0.65;48.88;100231.52;1810659;79;21025;-71
2022/03/28 04:26:41;;;;;;;14.58;4.45;;;;;;;-0.61;48.73;100242.73;1810657;78;20961;-69
2022/03/28 04:29:09;;;;;;;17.42;6.03;;;;;;;-0.59;48.87;100235.73;1810740;79;21391;-70
2022/03/28 04:31:42;;;;;;;11.78;5.70;;;;;;;-0.57;48.62;100235.81;1810347;79;20871;-72
2022/03/28 04:34:14;;;;;;;20.77;5.42;;;;;;;-0.53;48.84;100229.42;1810450;78;21380;-71
2022/03/28 04:36:49;;;;;;;15.25;5.33;;;;;;;-0.49;48.80;100223.83;1810447;79;21193;-71
2022/03/28 04:39:18;;;;;;;12.65;4.50;;;;;;;-0.47;48.43;100219.02;1779093;79;20949;-70
2022/03/28 04:41:45;;;;;;;18.55;5.95;;;;;;;-0.45;48.40;100222.85;1811055;79;21034;-70
2022/03/28 04:44:16;;;;;;;17.52;4.28;;;;;;;-0.42;48.06;100212.39;1810395;79;21018;-70
2022/03/28 04:46:47;;;;;;;11.25;3.92;;;;;;;-0.39;48.02;100207.86;1779783;79;21058;-68
2022/03/28 04:49:14;;;;;;;9.43;4.20;;;;;;;-0.35;48.07;100203.34;1810589;79;20950;-71
2022/03/28 04:51:43;;;;;;;10.98;3.75;;;;;;;-0.30;47.90;100198.89;1810300;78;20963;-70
2022/03/28 04:54:11;;;;;;;14.60;4.67;;;;;;;-0.25;47.95;100185.48;1810310;79;21002;-70
2022/03/28 04:56:50;;;;;;;11.55;4.62;;;;;;;-0.17;47.80;100186.21;1810494;79;21059;-70
2022/03/28 04:59:17;;;;;;;14.68;3.85;;;;;;;-0.09;47.55;100187.75;1810011;79;20858;-69
2022/03/28 05:01:45;;;;;;;12.43;3.62;;;;;;;-0.04;47.46;100195.48;1779178;79;21009;-71
2022/03/28 05:04:16;;;;;;;18.70;4.47;;;;;;;0.01;47.26;100193.95;1810509;79;20996;-68
2022/03/28 05:06:46;;;;;;;13.00;3.22;;;;;;;0.05;46.96;100189.73;1810669;79;20938;-70
2022/03/28 05:09:15;;;;;;;7.45;3.33;;;;;;;0.08;47.06;100194.16;1810593;79;20903;-71
2022/03/28 05:11:44;;;;;;;10.93;3.27;;;;;;;0.13;46.78;100188.03;1810225;79;20962;-72
2022/03/28 05:14:14;;;;;;;11.85;3.62;;;;;;;0.17;46.69;100182.41;1810580;79;20954;-69
2022/03/28 05:16:47;;;;;;;8.13;3.47;;;;;;;0.20;46.73;100177.08;1764821;79;20990;-69
2022/03/28 05:19:17;;;;;;;9.70;3.80;;;;;;;0.26;46.70;100176.67;1770122;79;20911;-72
2022/03/28 05:21:50;;;;;;;15.08;3.45;;;;;;;0.28;46.42;100189.44;1810577;79;21231;-72
2022/03/28 05:24:23;;;;;;;11.43;3.87;;;;;;;0.30;46.10;100186.80;1809664;79;20941;-70
2022/03/28 05:26:54;;;;;;;13.93;3.62;;;;;;;0.32;46.26;100188.77;1810710;79;20911;-69
2022/03/28 05:29:24;;;;;;;9.88;3.75;;;;;;;0.35;46.37;100190.16;1810902;79;21367;-71
2022/03/28 05:31:51;;;;;;;15.53;3.42;;;;;;;0.39;46.56;100189.16;1810221;79;21000;-72
2022/03/28 05:34:20;;;;;;;12.37;4.67;;;;;;;0.42;46.24;100186.81;1803764;79;21115;-72
2022/03/28 05:36:49;;;;;;;11.12;3.40;;;;;;;0.45;46.28;100178.72;1777927;79;21981;-72
2022/03/28 05:39:28;;;;;;;15.18;3.15;;;;;;;0.52;46.34;100178.59;1791226;79;20824;-71
2022/03/28 05:41:56;;;;;;;6.70;2.77;;;;;;;0.55;46.23;100161.33;1799402;79;20950;-69
2022/03/28 05:44:23;;;;;;;14.83;3.37;;;;;;;0.60;45.96;100160.61;1799532;79;21001;-69
2022/03/28 05:46:58;;;;;;;12.60;4.00;;;;;;;0.63;45.90;100166.94;1799321;79;20965;-71
2022/03/28 05:49:30;;;;;;;11.88;4.75;;;;;;;0.66;45.76;100158.31;1797889;79;21554;-68
2022/03/28 05:52:00;;;;;;;11.83;3.72;;;;;;;0.72;45.60;100166.02;1799342;79;20986;-72
2022/03/28 05:54:38;;;;;;;13.95;3.25;;;;;;;0.76;45.62;100161.78;1792939;78;20971;-71
2022/03/28 05:57:10;;;;;;;9.20;3.80;;;;;;;0.82;45.57;100153.22;1799381;79;20948;-71
2022/03/28 05:59:44;;;;;;;14.55;4.47;;;;;;;0.88;45.48;100156.33;1795359;79;20899;-74
2022/03/28 06:02:11;;;;;;;13.05;3.77;;;;;;;0.94;45.36;100143.14;1799229;79;21585;-72
2022/03/28 06:04:44;;;;;;;10.18;4.28;;;;;;;1.01;45.19;100138.94;1799138;79;20927;-71
2022/03/28 06:07:13;;;;;;;18.92;4.28;;;;;;;1.06;44.73;100139.03;1798317;79;21030;-72
2022/03/28 06:09:45;;;;;;;13.32;4.80;;;;;;;1.13;44.44;100144.84;1799387;79;20959;-68
2022/03/28 06:12:15;;;;;;;24.20;5.12;;;;;;;1.19;44.12;100137.95;1799479;79;21188;-73
2022/03/28 06:14:53;;;;;;;11.83;4.00;;;;;;;1.25;44.12;100132.59;1796476;79;21523;-69
2022/03/28 06:17:25;;;;;;;13.40;3.85;;;;;;;1.32;44.07;100144.14;1777243;78;21013;-69
2022/03/28 06:19:55;;;;;;;12.55;2.95;;;;;;;1.41;44.08;100133.19;1798998;79;20993;-68
2022/03/28 06:22:25;;;;;;;13.53;4.15;;;;;;;1.49;43.87;100131.95;1799206;78;20946;-70
2022/03/28 06:24:56;;;;;;;9.48;3.10;;;;;;;1.58;43.89;100128.31;1796605;78;20911;-70
2022/03/28 06:27:26;;;;;;;21.70;3.55;;;;;;;1.68;43.69;100130.38;1799273;79;20915;-70
2022/03/28 06:29:57;;;;;;;15.95;3.02;;;;;;;1.77;43.23;100119.41;1797852;79;20863;-70
2022/03/28 06:32:24;;;;;;;5.70;2.80;;;;;;;1.82;42.61;100122.73;1799308;79;21075;-70
2022/03/28 06:34:53;;;;;;;6.95;3.72;;;;;;;1.85;42.63;100123.59;1795064;79;20958;-70
2022/03/28 06:37:24;;;;;;;12.73;4.05;;;;;;;1.89;42.71;100124.76;1799362;79;21131;-69
2022/03/28 06:39:54;;;;;;;14.58;3.33;;;;;;;1.93;42.63;100119.09;1799344;79;20918;-70
2022/03/28 06:42:21;;;;;;;10.43;2.98;;;;;;;2.01;42.48;100109.72;1799576;79;20974;-68
2022/03/28 06:44:48;;;;;;;8.78;3.05;;;;;;;2.08;42.24;100093.23;1799119;79;20906;-72
2022/03/28 06:47:16;;;;;;;8.03;2.33;;;;;;;2.18;41.68;100092.56;1799370;79;21471;-71
2022/03/28 06:49:45;;;;;;;14.95;4.15;;;;;;;2.27;41.29;100076.64;1799266;79;21979;-71
2022/03/28 06:52:12;;;;;;;14.58;3.50;;;;;;;2.37;41.00;100075.40;1799230;79;21003;-72
2022/03/28 06:54:39;;;;;;;10.53;2.77;;;;;;;2.46;40.78;100068.98;1798903;79;21013;-71
2022/03/28 06:57:12;;;;;;;11.50;3.77;;;;;;;2.54;40.43;100059.02;1798971;79;21014;-70
2022/03/28 06:59:41;;;;;;;14.53;3.02;;;;;;;2.64;40.08;100053.44;1778031;79;20977;-71
2022/03/28 07:02:10;;;;;;;16.15;3.37;;;;;;;2.72;40.10;100052.98;1799551;79;21737;-70
2022/03/28 07:04:38;;;;;;;5.67;2.40;;;;;;;2.85;39.75;100053.68;1798487;79;21392;-69
2022/03/28 07:07:09;;;;;;;14.45;2.83;;;;;;;2.96;39.42;100058.68;1777989;79;20942;-71
2022/03/28 07:09:37;;;;;;;5.35;2.30;;;;;;;3.06;38.30;100071.05;1799292;79;20923;-70
2022/03/28 07:12:05;;;;;;;9.60;2.58;;;;;;;3.12;38.37;100057.75;1799581;79;21022;-70
2022/03/28 07:14:33;;;;;;;13.53;2.80;;;;;;;3.20;38.25;100063.30;1777392;79;21566;-71
2022/03/28 07:17:03;;;;;;;6.90;2.85;;;;;;;3.29;38.11;100058.21;1799228;79;20924;-73
2022/03/28 07:19:32;;;;;;;5.72;2.42;;;;;;;3.36;37.68;100045.18;1799083;78;21475;-73
2022/03/28 07:21:59;;;;;;;7.55;2.70;;;;;;;3.37;37.38;100045.48;1777157;79;21464;-72
2022/03/28 07:24:30;;;;;;;6.25;2.15;;;;;;;3.38;37.15;100032.66;1777828;79;20998;-72
2022/03/28 07:27:03;;;;;;;4.40;2.08;;;;;;;3.38;36.51;100029.41;1798812;79;20887;-72
2022/03/28 07:29:32;;;;;;;11.68;2.72;;;;;;;3.40;36.29;100025.05;1799383;79;20927;-72
2022/03/28 07:32:00;;;;;;;6.83;3.22;;;;;;;3.40;36.50;100010.07;1799231;79;21014;-72
2022/03/28 07:34:38;;;;;;;5.72;2.85;;;;;;;3.42;36.53;99999.73;1799183;79;20982;-73
2022/03/28 07:37:09;;;;;;;6.03;2.58;;;;;;;3.49;36.58;100009.05;1798982;78;20907;-70
2022/03/28 07:39:38;;;;;;;4.70;2.30;;;;;;;3.57;36.16;99998.20;1799071;79;21280;-68
2022/03/28 07:42:08;;;;;;;6.00;2.58;;;;;;;3.65;35.96;99998.54;1799151;79;20978;-70
2022/03/28 07:44:36;;;;;;;11.78;2.52;;;;;;;3.71;36.10;99987.67;1799423;79;21018;-69
2022/03/28 07:47:08;;;;;;;24.10;3.00;;;;;;;3.79;35.79;99983.66;1798864;78;20894;-69
2022/03/28 07:49:37;;;;;;;10.28;2.35;;;;;;;3.87;35.98;99981.23;1799496;79;20995;-71
2022/03/28 07:52:10;;;;;;;5.87;2.80;;;;;;;3.95;35.81;99972.28;1799376;79;21158;-70
2022/03/28 07:54:39;;;;;;;4.83;1.75;;;;;;;4.04;35.72;99963.88;1799553;79;20954;-71
2022/03/28 07:57:09;;;;;;;7.90;2.40;;;;;;;4.13;35.43;99955.45;1799215;79;21073;-71
2022/03/28 07:59:42;;;;;;;11.50;2.83;;;;;;;4.22;35.45;99946.23;1775249;79;21482;-72
2022/03/28 08:02:11;;;;;;;21.70;2.72;;;;;;;4.33;35.11;99945.70;1799380;79;21479;-72
2022/03/28 08:04:39;;;;;;;12.30;4.60;;;;;;;4.42;34.96;99930.20;1799325;79;21787;-71
2022/03/28 08:07:12;;;;;;;9.40;4.15;;;;;;;4.47;34.71;99919.30;1799168;79;20984;-70
2022/03/28 08:09:40;;;;;;;7.00;2.55;;;;;;;4.48;34.93;99919.56;1799601;79;20918;-73
2022/03/28 08:12:09;;;;;;;11.97;3.05;;;;;;;4.60;35.14;99913.32;1799629;79;20970;-73
2022/03/28 08:14:40;;;;;;;13.85;2.10;;;;;;;4.81;35.15;99911.16;1799426;79;21046;-71
2022/03/28 08:17:10;;;;;;;5.90;1.77;;;;;;;5.07;34.89;99907.88;1799566;79;21238;-72
2022/03/28 08:19:46;;;;;;;7.83;2.15;;;;;;;5.30;34.48;99896.66;1798066;79;21375;-71
2022/03/28 08:22:14;;;;;;;6.70;2.92;;;;;;;5.50;34.16;99895.81;1799510;79;20958;-70
2022/03/28 08:24:43;;;;;;;9.38;2.98;;;;;;;5.72;34.20;99894.66;1798676;79;21432;-71
2022/03/28 08:27:12;;;;;;;5.10;2.40;;;;;;;5.93;34.09;99883.64;1799191;79;21013;-72
2022/03/28 08:29:47;;;;;;;7.42;2.25;;;;;;;6.16;34.31;99874.56;1795817;79;21490;-70
2022/03/28 08:32:16;;;;;;;9.33;2.02;;;;;;;6.42;33.33;99875.76;1799257;79;21027;-71
2022/03/28 08:34:48;;;;;;;4.55;1.95;;;;;;;6.55;33.08;99877.86;1797395;79;21022;-72
2022/03/28 08:37:16;;;;;;;12.88;3.00;;;;;;;6.63;33.10;99864.13;1798749;79;21483;-72
2022/03/28 08:39:46;;;;;;;10.25;2.62;;;;;;;6.79;33.46;99864.81;1798902;79;21561;-71
2022/03/28 08:42:15;;;;;;;7.22;3.15;;;;;;;6.98;33.14;99846.31;1799377;79;21154;-70
2022/03/28 08:44:48;;;;;;;4.10;2.02;;;;;;;7.15;33.09;99843.68;1799211;79;20895;-72
2022/03/28 08:47:21;;;;;;;7.00;2.52;;;;;;;7.37;32.90;99843.77;1799555;79;21030;-73
2022/03/28 08:49:53;;;;;;;3.98;1.75;;;;;;;7.57;32.94;99832.29;1799821;79;20951;-71
2022/03/28 08:52:24;;;;;;;4.03;1.60;;;;;;;7.70;32.18;99842.55;1799459;78;20915;-67
2022/03/28 08:54:52;;;;;;;5.95;2.80;;;;;;;7.82;32.68;99823.48;1799520;79;21060;-70
2022/03/28 08:57:21;;;;;;;12.53;3.55;;;;;;;7.98;32.08;99825.48;1799198;79;20950;-71
2022/03/28 08:59:53;;;;;;;8.25;2.15;;;;;;;8.05;31.60;99812.22;1799864;79;20908;-69
2022/03/28 09:03:00;;;;;;;7.15;2.10;;;;;;;8.11;32.10;99807.45;1798264;79;21475;-70
2022/03/28 09:05:38;;;;;;;7.22;2.50;;;;;;;8.17;31.42;99799.42;1799251;79;21512;-70
2022/03/28 09:08:07;;;;;;;8.50;2.80;;;;;;;8.18;31.67;99799.67;1799432;79;21228;-69
2022/03/28 09:10:38;;;;;;;9.65;2.83;;;;;;;8.22;31.30;99802.64;1798325;79;20939;-70
2022/03/28 09:13:10;;;;;;;11.63;3.05;;;;;;;8.23;32.23;99791.36;1793957;79;21383;-70
2022/03/28 09:15:58;;;;;;;5.58;2.80;;;;;;;8.31;31.72;99783.00;1799370;79;21387;-71
2022/03/28 09:18:34;;;;;;;13.10;3.52;;;;;;;8.39;31.96;99771.91;1799392;78;20962;-71
2022/03/28 09:21:07;;;;;;;11.45;2.37;;;;;;;8.54;31.97;99772.21;1799699;79;21383;-71
2022/03/28 09:23:49;;;;;;;9.15;2.27;;;;;;;8.68;31.52;99764.05;1799288;79;20868;-70
2022/03/28 09:26:36;;;;;;;9.90;2.85;;;;;;;8.81;32.00;99761.62;1799063;79;20875;-71
2022/03/28 09:29:06;;;;;;;10.90;3.02;;;;;;;8.99;31.78;99766.23;1777177;79;20914;-69
2022/03/28 09:31:52;;;;;;;6.50;2.92;;;;;;;9.12;31.02;99750.06;1799400;79;20967;-71
2022/03/28 09:34:37;;;;;;;7.67;3.47;;;;;;;9.14;31.44;99739.59;1788470;79;21007;-70
2022/03/28 09:37:06;;;;;;;7.28;3.25;;;;;;;9.21;31.38;99730.34;1799230;79;21487;-72
2022/03/28 09:39:33;;;;;;;13.80;4.28;;;;;;;9.33;31.52;99733.96;1777221;79;21037;-69
2022/03/28 09:42:06;;;;;;;9.10;3.25;;;;;;;9.44;31.20;99730.45;1799589;79;20868;-69
2022/03/28 09:44:48;;;;;;;4.83;2.27;;;;;;;9.49;30.78;99716.59;1799490;79;21014;-71
2022/03/28 09:47:20;;;;;;;9.53;3.42;;;;;;;9.53;30.84;99708.55;1799663;79;21782;-71
2022/03/28 09:49:51;;;;;;;6.60;3.00;;;;;;;9.57;31.12;99698.53;1798942;79;21400;-71
2022/03/28 09:52:25;;;;;;;;;;;;;;;9.64;31.12;99700.06;1800535;79;20857;-72
2022/03/28 09:55:00;;;;;;;7.60;2.60;;;;;;;9.73;30.69;99694.06;1799461;79;20459;-72
2022/03/28 09:57:33;;;;;;;9.10;2.87;;;;;;;9.78;31.11;99690.38;1799669;79;21538;-73
2022/03/28 10:00:17;;;;;;;5.72;2.55;;;;;;;9.86;31.19;99675.31;1798767;79;21218;-70
2022/03/28 10:02:47;;;;;;;15.90;3.47;;;;;;;10.00;31.37;99669.53;1799018;79;20957;-70
2022/03/28 10:05:17;;;;;;;8.48;2.67;;;;;;;10.17;30.62;99675.14;1799293;79;21022;-69
2022/03/28 10:07:49;;;;;;;5.67;2.67;;;;;;;10.25;30.09;99666.70;1799238;79;20867;-72
2022/03/28 10:10:17;;;;;;;7.10;2.35;;;;;;;10.26;30.40;99661.98;1799453;79;21518;-72
2022/03/28 10:12:49;;;;;;;9.33;2.20;;;;;;;10.37;30.38;99659.23;1799558;79;21085;-73
2022/03/28 10:15:16;;;;;;;8.83;2.75;;;;;;;10.46;30.32;99648.25;1799263;79;21463;-71
2022/03/28 10:17:44;;;;;;;14.98;2.65;;;;;;;10.49;29.89;99645.47;1799126;78;21022;-70
2022/03/28 10:20:23;;;;;;;10.15;3.20;;;;;;;10.48;29.89;99643.27;1794323;79;20886;-72
2022/03/28 10:22:51;;;;;;;;;;;;;;;10.49;29.84;99635.27;1781106;79;20871;-70
2022/03/28 10:25:21;;;;;;;10.55;2.27;;;;;;;10.53;30.30;99629.91;1777353;79;21212;-72
2022/03/28 10:27:56;;;;;;;10.82;2.95;;;;;;;10.61;30.01;99619.49;1799149;79;20902;-71
2022/03/28 10:30:30;;;;;;;7.25;2.85;;;;;;;10.69;29.70;99623.43;1799014;79;20950;-70
2022/03/28 10:33:19;;;;;;;9.35;2.50;;;;;;;10.80;29.88;99614.30;1799197;79;21412;-71
2022/03/28 10:36:01;;;;;;;11.05;2.47;;;;;;;10.92;30.13;99615.88;1798768;79;20918;-71
2022/03/28 10:38:31;;;;;;;6.20;2.83;;;;;;;10.97;29.62;99618.25;1799410;79;21095;-72
2022/03/28 10:41:03;;;;;;;5.45;2.17;;;;;;;10.92;29.71;99597.96;1777325;79;21384;-72
2022/03/28 10:43:32;;;;;;;14.35;2.80;;;;;;;10.97;29.98;99594.82;1799252;79;21488;-70
2022/03/28 10:46:02;;;;;;;10.18;3.27;;;;;;;11.10;29.96;99586.98;1799255;79;20931;-71
2022/03/28 10:48:54;;;;;;;11.08;2.95;;;;;;;11.23;29.16;99587.14;1799520;79;21475;-70
2022/03/28 10:51:29;;;;;;;11.83;2.50;;;;;;;11.23;29.07;99572.79;1786961;79;21185;-70
2022/03/28 10:54:05;;;;;;;28.02;3.90;;;;;;;11.24;29.59;99571.64;1794782;79;20958;-71
2022/03/28 10:56:43;;;;;;;11.50;5.72;;;;;;;11.35;29.91;99566.63;1799194;79;20998;-73
2022/03/28 10:59:20;;;;;;;13.90;4.85;;;;;;;11.51;29.61;99552.35;1795571;79;20982;-72
2022/03/28 11:01:54;;;;;;;13.22;3.72;;;;;;;11.57;29.18;99563.45;1776540;79;20927;-72
2022/03/28 11:04:25;;;;;;;12.88;2.72;;;;;;;11.51;29.21;99553.17;1798709;79;20977;-71
2022/03/28 11:07:07;;;;;;;12.33;4.90;;;;;;;11.42;29.57;99533.86;1799292;79;21005;-72
2022/03/28 11:10:08;;;;;;;12.43;2.65;;;;;;;11.44;29.44;99530.22;1799187;79;21522;-73
2022/03/28 11:12:40;;;;;;;12.23;3.37;;;;;;;11.53;29.31;99528.02;1799275;79;20942;-72
2022/03/28 11:15:23;;;;;;;15.88;3.62;;;;;;;11.52;29.04;99512.58;1795774;79;20971;-72
2022/03/28 11:18:04;;;;;;;7.67;2.75;;;;;;;11.56;29.61;99502.52;1798257;78;20824;-73
2022/03/28 11:23:42;;;;;;;15.60;2.75;;;;;;;11.83;29.26;99485.33;1799039;79;21034;-71
2022/03/28 11:26:10;;;;;;;8.10;2.72;;;;;;;11.97;28.65;99491.20;1800015;79;20918;-71
2022/03/28 11:28:40;;;;;;;6.28;2.50;;;;;;;12.00;29.39;99497.45;1799166;79;21013;-72
2022/03/28 11:31:09;;;;;;;7.12;2.60;;;;;;;12.05;28.75;99487.04;1799363;79;21201;-68
2022/03/28 11:33:52;;;;;;;10.70;2.80;;;;;;;12.00;29.07;99487.78;1799067;79;20966;-70
2022/03/28 11:36:22;;;;;;;10.20;3.17;;;;;;;12.03;29.42;99479.65;1799493;79;21001;-72
2022/03/28 11:38:51;;;;;;;17.40;2.98;;;;;;;12.10;28.65;99465.36;1799107;79;21006;-71
2022/03/28 11:41:25;;;;;;;13.70;2.70;;;;;;;12.14;28.45;99458.04;1799312;79;22134;-71
2022/03/28 11:43:55;;;;;;;10.15;2.65;;;;;;;12.12;28.60;99463.08;1777396;79;21132;-73
2022/03/28 11:46:32;;;;;;;13.62;2.65;;;;;;;12.08;28.51;99465.43;1792791;79;20922;-73
2022/03/28 11:49:05;;;;;;;9.18;2.52;;;;;;;12.07;28.28;99459.09;1799224;79;21483;-69